createdAt,value
2017-08-08T00:00:28.745Z,1013.32
2017-08-08T00:01:09.327Z,1013.27
2017-08-08T00:01:49.905Z,1013.28
2017-08-08T00:02:30.487Z,1013.28
2017-08-08T00:03:11.081Z,1013.26
2017-08-08T00:03:51.653Z,1013.25
2017-08-08T00:04:32.238Z,1013.26
2017-08-08T00:05:12.842Z,1013.22
2017-08-08T00:05:53.414Z,1013.24
2017-08-08T00:06:34.010Z,1013.25
2017-08-08T00:07:14.675Z,1013.21
2017-08-08T00:07:55.254Z,1013.23
2017-08-08T00:08:35.829Z,1013.2
2017-08-08T00:09:16.408Z,1013.15
2017-08-08T00:09:57.016Z,1013.14
2017-08-08T00:10:37.608Z,1013.14
2017-08-08T00:11:18.184Z,1013.16
2017-08-08T00:11:58.764Z,1013.15
2017-08-08T00:12:39.355Z,1013.09
2017-08-08T00:13:19.921Z,1013.05
2017-08-08T00:14:00.534Z,1013.11
2017-08-08T00:14:41.129Z,1013.05
2017-08-08T00:15:21.699Z,1013.04
2017-08-08T00:16:02.275Z,1013.04
2017-08-08T00:16:42.844Z,1013.03
2017-08-08T00:17:23.435Z,1013
2017-08-08T00:18:04.030Z,1012.96
2017-08-08T00:18:44.627Z,1012.96
2017-08-08T00:19:25.212Z,1013
2017-08-08T00:20:05.804Z,1012.93
2017-08-08T00:20:46.393Z,1012.99
2017-08-08T00:21:26.964Z,1012.95
2017-08-08T00:22:07.526Z,1012.94
2017-08-08T00:22:48.105Z,1012.94
2017-08-08T00:23:28.689Z,1012.94
2017-08-08T00:24:09.257Z,1012.95
2017-08-08T00:24:49.836Z,1012.92
2017-08-08T00:25:30.402Z,1012.95
2017-08-08T00:26:10.978Z,1012.95
2017-08-08T00:26:51.556Z,1012.97
2017-08-08T00:27:32.127Z,1012.99
2017-08-08T00:28:12.703Z,1013
2017-08-08T00:28:53.282Z,1013.01
2017-08-08T00:29:33.874Z,1012.99
2017-08-08T00:30:16.993Z,1013
2017-08-08T00:30:57.576Z,1012.97
2017-08-08T00:31:38.148Z,1013.02
2017-08-08T00:32:18.719Z,1012.97
2017-08-08T00:32:59.301Z,1012.95
2017-08-08T00:33:39.875Z,1013
2017-08-08T00:34:20.451Z,1012.94
2017-08-08T00:35:01.026Z,1012.93
2017-08-08T00:35:41.599Z,1012.9
2017-08-08T00:36:22.202Z,1012.91
2017-08-08T00:37:02.764Z,1012.91
2017-08-08T00:37:43.370Z,1012.88
2017-08-08T00:38:23.941Z,1012.88
2017-08-08T00:39:04.517Z,1012.89
2017-08-08T00:39:45.097Z,1012.86
2017-08-08T00:40:25.668Z,1012.81
2017-08-08T00:41:06.246Z,1012.83
2017-08-08T00:41:46.825Z,1012.81
2017-08-08T00:42:27.408Z,1012.81
2017-08-08T00:43:07.990Z,1012.82
2017-08-08T00:43:48.565Z,1012.77
2017-08-08T00:44:29.150Z,1012.82
2017-08-08T00:45:09.718Z,1012.82
2017-08-08T00:45:50.304Z,1012.82
2017-08-08T00:46:30.929Z,1012.77
2017-08-08T00:47:11.503Z,1012.79
2017-08-08T00:47:52.081Z,1012.81
2017-08-08T00:48:32.655Z,1012.78
2017-08-08T00:49:13.224Z,1012.79
2017-08-08T00:49:53.816Z,1012.8
2017-08-08T00:50:34.396Z,1012.76
2017-08-08T00:51:14.973Z,1012.79
2017-08-08T00:51:55.591Z,1012.76
2017-08-08T00:52:36.159Z,1012.73
2017-08-08T00:53:16.726Z,1012.7
2017-08-08T00:53:57.286Z,1012.74
2017-08-08T00:54:37.875Z,1012.69
2017-08-08T00:55:18.436Z,1012.74
2017-08-08T00:55:58.996Z,1012.72
2017-08-08T00:56:39.584Z,1012.72
2017-08-08T00:57:20.154Z,1012.71
2017-08-08T00:58:00.731Z,1012.68
2017-08-08T00:58:41.296Z,1012.68
2017-08-08T00:59:21.873Z,1012.65
2017-08-08T01:00:02.440Z,1012.64
2017-08-08T01:00:43.027Z,1012.62
2017-08-08T01:01:23.599Z,1012.63
2017-08-08T01:02:04.157Z,1012.58
2017-08-08T01:02:44.744Z,1012.61
2017-08-08T01:03:25.325Z,1012.6
2017-08-08T01:04:05.897Z,1012.61
2017-08-08T01:04:46.460Z,1012.6
2017-08-08T01:05:27.036Z,1012.59
2017-08-08T01:06:07.613Z,1012.57
2017-08-08T01:06:48.178Z,1012.61
2017-08-08T01:07:28.768Z,1012.58
2017-08-08T01:08:09.360Z,1012.58
2017-08-08T01:08:49.940Z,1012.55
2017-08-08T01:09:30.509Z,1012.57
2017-08-08T01:10:11.071Z,1012.53
2017-08-08T01:10:51.660Z,1012.57
2017-08-08T01:11:32.223Z,1012.54
2017-08-08T01:12:12.791Z,1012.52
2017-08-08T01:12:53.364Z,1012.54
2017-08-08T01:13:33.929Z,1012.54
2017-08-08T01:14:14.508Z,1012.54
2017-08-08T01:14:55.085Z,1012.52
2017-08-08T01:15:35.664Z,1012.51
2017-08-08T01:16:16.232Z,1012.49
2017-08-08T01:16:56.814Z,1012.48
2017-08-08T01:17:37.398Z,1012.46
2017-08-08T01:18:17.977Z,1012.47
2017-08-08T01:18:58.546Z,1012.47
2017-08-08T01:19:39.112Z,1012.4
2017-08-08T01:20:19.689Z,1012.44
2017-08-08T01:21:00.259Z,1012.45
2017-08-08T01:21:40.872Z,1012.47
2017-08-08T01:22:21.480Z,1012.44
2017-08-08T01:23:02.073Z,1012.45
2017-08-08T01:23:42.666Z,1012.48
2017-08-08T01:24:23.236Z,1012.49
2017-08-08T01:25:03.814Z,1012.5
2017-08-08T01:25:44.385Z,1012.5
2017-08-08T01:26:24.967Z,1012.51
2017-08-08T01:27:05.569Z,1012.57
2017-08-08T01:27:46.146Z,1012.54
2017-08-08T01:28:26.729Z,1012.54
2017-08-08T01:29:07.301Z,1012.53
2017-08-08T01:29:47.890Z,1012.47
2017-08-08T01:30:28.483Z,1012.48
2017-08-08T01:31:09.058Z,1012.49
2017-08-08T01:31:49.656Z,1012.5
2017-08-08T01:32:30.228Z,1012.49
2017-08-08T01:33:10.810Z,1012.48
2017-08-08T01:33:51.386Z,1012.49
2017-08-08T01:34:31.968Z,1012.52
2017-08-08T01:35:12.554Z,1012.5
2017-08-08T01:35:53.134Z,1012.49
2017-08-08T01:36:33.722Z,1012.5
2017-08-08T01:37:14.327Z,1012.53
2017-08-08T01:37:54.906Z,1012.51
2017-08-08T01:38:35.470Z,1012.51
2017-08-08T01:39:16.038Z,1012.53
2017-08-08T01:39:56.612Z,1012.54
2017-08-08T01:40:37.196Z,1012.49
2017-08-08T01:41:17.762Z,1012.45
2017-08-08T01:41:58.370Z,1012.47
2017-08-08T01:42:38.937Z,1012.5
2017-08-08T01:43:19.497Z,1012.48
2017-08-08T01:44:00.076Z,1012.49
2017-08-08T01:44:40.651Z,1012.46
2017-08-08T01:45:21.241Z,1012.43
2017-08-08T01:46:01.805Z,1012.45
2017-08-08T01:46:42.389Z,1012.43
2017-08-08T01:47:22.970Z,1012.46
2017-08-08T01:48:03.537Z,1012.44
2017-08-08T01:48:44.115Z,1012.46
2017-08-08T01:49:24.685Z,1012.41
2017-08-08T01:50:05.252Z,1012.41
2017-08-08T01:50:45.836Z,1012.39
2017-08-08T01:51:26.424Z,1012.39
2017-08-08T01:52:06.997Z,1012.4
2017-08-08T01:52:47.578Z,1012.4
2017-08-08T01:53:28.151Z,1012.41
2017-08-08T01:54:08.728Z,1012.4
2017-08-08T01:54:49.329Z,1012.39
2017-08-08T01:55:29.908Z,1012.43
2017-08-08T01:56:10.506Z,1012.4
2017-08-08T01:56:51.073Z,1012.39
2017-08-08T01:57:31.650Z,1012.41
2017-08-08T01:58:12.246Z,1012.4
2017-08-08T01:58:52.826Z,1012.42
2017-08-08T01:59:33.403Z,1012.41
2017-08-08T02:00:13.967Z,1012.37
2017-08-08T02:00:54.547Z,1012.39
2017-08-08T02:01:35.109Z,1012.39
2017-08-08T02:02:15.699Z,1012.43
2017-08-08T02:02:56.278Z,1012.38
2017-08-08T02:03:36.847Z,1012.38
2017-08-08T02:04:17.421Z,1012.4
2017-08-08T02:04:57.987Z,1012.39
2017-08-08T02:05:38.608Z,1012.41
2017-08-08T02:06:19.182Z,1012.41
2017-08-08T02:06:59.764Z,1012.39
2017-08-08T02:07:40.356Z,1012.39
2017-08-08T02:08:20.932Z,1012.41
2017-08-08T02:09:01.496Z,1012.43
2017-08-08T02:09:42.068Z,1012.45
2017-08-08T02:10:22.652Z,1012.48
2017-08-08T02:11:03.218Z,1012.44
2017-08-08T02:11:43.789Z,1012.42
2017-08-08T02:12:24.358Z,1012.42
2017-08-08T02:13:04.927Z,1012.41
2017-08-08T02:13:45.525Z,1012.49
2017-08-08T02:14:26.131Z,1012.44
2017-08-08T02:15:06.684Z,1012.38
2017-08-08T02:15:47.252Z,1012.41
2017-08-08T02:16:27.820Z,1012.43
2017-08-08T02:17:08.413Z,1012.4
2017-08-08T02:17:48.989Z,1012.44
2017-08-08T02:18:29.549Z,1012.4
2017-08-08T02:19:10.116Z,1012.4
2017-08-08T02:19:50.686Z,1012.38
2017-08-08T02:20:31.265Z,1012.38
2017-08-08T02:21:11.836Z,1012.4
2017-08-08T02:21:52.398Z,1012.41
2017-08-08T02:22:32.974Z,1012.39
2017-08-08T02:23:13.544Z,1012.35
2017-08-08T02:23:54.135Z,1012.37
2017-08-08T02:24:34.707Z,1012.34
2017-08-08T02:25:15.272Z,1012.31
2017-08-08T02:25:55.834Z,1012.32
2017-08-08T02:26:36.416Z,1012.31
2017-08-08T02:27:16.989Z,1012.32
2017-08-08T02:27:57.590Z,1012.37
2017-08-08T02:28:38.170Z,1012.31
2017-08-08T02:29:18.748Z,1012.39
2017-08-08T02:29:59.304Z,1012.35
2017-08-08T02:30:39.899Z,1012.31
2017-08-08T02:31:20.491Z,1012.32
2017-08-08T02:32:01.041Z,1012.31
2017-08-08T02:32:41.605Z,1012.35
2017-08-08T02:33:22.210Z,1012.32
2017-08-08T02:34:02.776Z,1012.36
2017-08-08T02:34:43.359Z,1012.33
2017-08-08T02:35:23.933Z,1012.34
2017-08-08T02:36:04.510Z,1012.31
2017-08-08T02:36:45.109Z,1012.33
2017-08-08T02:37:25.657Z,1012.36
2017-08-08T02:38:06.216Z,1012.33
2017-08-08T02:38:46.778Z,1012.32
2017-08-08T02:39:27.358Z,1012.33
2017-08-08T02:40:07.918Z,1012.35
2017-08-08T02:40:48.503Z,1012.33
2017-08-08T02:41:29.081Z,1012.3
2017-08-08T02:42:09.649Z,1012.32
2017-08-08T02:42:50.232Z,1012.28
2017-08-08T02:43:30.812Z,1012.32
2017-08-08T02:44:11.386Z,1012.28
2017-08-08T02:44:51.969Z,1012.3
2017-08-08T02:45:32.529Z,1012.27
2017-08-08T02:46:13.105Z,1012.27
2017-08-08T02:46:53.672Z,1012.28
2017-08-08T02:47:34.246Z,1012.25
2017-08-08T02:48:14.834Z,1012.2
2017-08-08T02:48:55.391Z,1012.2
2017-08-08T02:49:35.961Z,1012.16
2017-08-08T02:50:16.555Z,1012.15
2017-08-08T02:50:57.125Z,1012.16
2017-08-08T02:51:37.712Z,1012.14
2017-08-08T02:52:18.275Z,1012.16
2017-08-08T02:52:58.845Z,1012.15
2017-08-08T02:53:39.429Z,1012.16
2017-08-08T02:54:20.001Z,1012.19
2017-08-08T02:55:00.585Z,1012.12
2017-08-08T02:55:41.155Z,1012.1
2017-08-08T02:56:21.755Z,1012.11
2017-08-08T02:57:02.326Z,1012.09
2017-08-08T02:57:42.910Z,1012.1
2017-08-08T02:58:23.488Z,1012.1
2017-08-08T02:59:04.087Z,1012.1
2017-08-08T02:59:44.658Z,1012.09
2017-08-08T03:00:25.227Z,1012.09
2017-08-08T03:01:05.813Z,1012.08
2017-08-08T03:01:46.432Z,1012.08
2017-08-08T03:02:26.977Z,1012.11
2017-08-08T03:03:07.572Z,1012.04
2017-08-08T03:03:48.147Z,1012.02
2017-08-08T03:04:28.736Z,1012.03
2017-08-08T03:05:09.304Z,1012.05
2017-08-08T03:05:49.879Z,1012.06
2017-08-08T03:06:30.465Z,1012.04
2017-08-08T03:07:11.022Z,1012.04
2017-08-08T03:07:51.608Z,1012.05
2017-08-08T03:08:32.179Z,1012.05
2017-08-08T03:09:12.771Z,1012.07
2017-08-08T03:09:53.356Z,1012.06
2017-08-08T03:10:33.932Z,1012.06
2017-08-08T03:11:14.511Z,1012.08
2017-08-08T03:11:55.075Z,1012.1
2017-08-08T03:12:35.648Z,1012.12
2017-08-08T03:13:16.232Z,1012.1
2017-08-08T03:13:56.798Z,1012.04
2017-08-08T03:14:37.378Z,1012.05
2017-08-08T03:15:17.946Z,1012.03
2017-08-08T03:15:58.534Z,1012.05
2017-08-08T03:16:39.085Z,1012.04
2017-08-08T03:17:19.668Z,1012.06
2017-08-08T03:18:00.242Z,1012.07
2017-08-08T03:18:40.809Z,1012.08
2017-08-08T03:19:21.368Z,1012.09
2017-08-08T03:20:01.959Z,1012.08
2017-08-08T03:20:42.527Z,1012.1
2017-08-08T03:21:23.120Z,1012.08
2017-08-08T03:22:03.687Z,1012.06
2017-08-08T03:22:44.252Z,1012.1
2017-08-08T03:23:24.834Z,1012.11
2017-08-08T03:24:05.389Z,1012.1
2017-08-08T03:24:45.971Z,1012.05
2017-08-08T03:25:26.600Z,1012.07
2017-08-08T03:26:07.159Z,1012.05
2017-08-08T03:26:47.766Z,1012.03
2017-08-08T03:27:28.336Z,1012.02
2017-08-08T03:28:08.930Z,1011.98
2017-08-08T03:28:49.530Z,1012.02
2017-08-08T03:29:30.112Z,1011.98
2017-08-08T03:30:10.677Z,1012.01
2017-08-08T03:30:51.262Z,1012.06
2017-08-08T03:31:31.848Z,1012.06
2017-08-08T03:32:12.427Z,1012.06
2017-08-08T03:32:53.001Z,1012.02
2017-08-08T03:33:33.598Z,1012.03
2017-08-08T03:34:14.184Z,1011.99
2017-08-08T03:34:54.773Z,1012.02
2017-08-08T03:35:35.363Z,1011.97
2017-08-08T03:36:15.933Z,1011.98
2017-08-08T03:36:56.508Z,1012.01
2017-08-08T03:37:37.081Z,1012
2017-08-08T03:38:17.673Z,1012.01
2017-08-08T03:38:58.258Z,1012
2017-08-08T03:39:38.837Z,1011.98
2017-08-08T03:40:19.410Z,1012.03
2017-08-08T03:40:59.987Z,1012.02
2017-08-08T03:41:40.556Z,1012.04
2017-08-08T03:42:21.148Z,1011.99
2017-08-08T03:43:01.737Z,1012.04
2017-08-08T03:43:42.316Z,1012.06
2017-08-08T03:44:22.907Z,1012.04
2017-08-08T03:45:03.481Z,1012.02
2017-08-08T03:45:44.066Z,1012.03
2017-08-08T03:46:24.663Z,1012.01
2017-08-08T03:47:05.288Z,1011.99
2017-08-08T03:47:45.850Z,1011.97
2017-08-08T03:48:26.425Z,1011.99
2017-08-08T03:49:07.003Z,1011.93
2017-08-08T03:49:47.582Z,1011.9
2017-08-08T03:50:28.155Z,1011.89
2017-08-08T03:51:08.725Z,1011.89
2017-08-08T03:51:49.313Z,1011.89
2017-08-08T03:52:29.908Z,1011.89
2017-08-08T03:53:10.504Z,1011.85
2017-08-08T03:53:51.067Z,1011.86
2017-08-08T03:54:31.633Z,1011.87
2017-08-08T03:55:12.209Z,1011.83
2017-08-08T03:55:52.793Z,1011.89
2017-08-08T03:56:33.379Z,1011.84
2017-08-08T03:57:13.966Z,1011.85
2017-08-08T03:57:54.551Z,1011.86
2017-08-08T03:58:35.123Z,1011.89
2017-08-08T03:59:15.703Z,1011.85
2017-08-08T03:59:56.302Z,1011.87
2017-08-08T04:00:36.904Z,1011.86
2017-08-08T04:01:17.508Z,1011.86
2017-08-08T04:01:58.085Z,1011.86
2017-08-08T04:02:38.657Z,1011.85
2017-08-08T04:03:19.216Z,1011.84
2017-08-08T04:03:59.799Z,1011.82
2017-08-08T04:04:40.382Z,1011.83
2017-08-08T04:05:20.957Z,1011.81
2017-08-08T04:06:01.538Z,1011.83
2017-08-08T04:06:42.159Z,1011.89
2017-08-08T04:07:22.733Z,1011.85
2017-08-08T04:08:03.310Z,1011.89
2017-08-08T04:08:43.883Z,1011.9
2017-08-08T04:09:24.491Z,1011.9
2017-08-08T04:10:05.094Z,1011.93
2017-08-08T04:10:45.680Z,1011.94
2017-08-08T04:11:26.317Z,1011.93
2017-08-08T04:12:06.892Z,1011.91
2017-08-08T04:12:47.468Z,1011.94
2017-08-08T04:13:28.079Z,1011.94
2017-08-08T04:14:08.649Z,1011.95
2017-08-08T04:14:49.240Z,1011.93
2017-08-08T04:15:29.812Z,1011.92
2017-08-08T04:16:10.383Z,1011.93
2017-08-08T04:16:50.966Z,1011.9
2017-08-08T04:17:31.541Z,1011.94
2017-08-08T04:18:12.116Z,1011.91
2017-08-08T04:18:52.677Z,1011.91
2017-08-08T04:19:33.287Z,1011.95
2017-08-08T04:20:13.878Z,1011.96
2017-08-08T04:20:54.444Z,1011.93
2017-08-08T04:21:35.014Z,1011.97
2017-08-08T04:22:15.596Z,1011.98
2017-08-08T04:22:56.220Z,1011.96
2017-08-08T04:23:36.799Z,1011.95
2017-08-08T04:24:17.375Z,1012
2017-08-08T04:24:57.964Z,1011.96
2017-08-08T04:25:38.554Z,1011.98
2017-08-08T04:26:19.123Z,1011.97
2017-08-08T04:26:59.697Z,1011.98
2017-08-08T04:27:40.272Z,1011.99
2017-08-08T04:28:20.914Z,1011.99
2017-08-08T04:29:01.512Z,1011.98
2017-08-08T04:29:42.080Z,1011.99
2017-08-08T04:30:22.658Z,1012.01
2017-08-08T04:31:03.241Z,1012.01
2017-08-08T04:31:43.850Z,1012.06
2017-08-08T04:32:24.449Z,1012.03
2017-08-08T04:33:05.024Z,1012.01
2017-08-08T04:33:45.597Z,1012.06
2017-08-08T04:34:26.159Z,1012.02
2017-08-08T04:35:06.731Z,1012.03
2017-08-08T04:35:47.300Z,1012.04
2017-08-08T04:36:27.865Z,1012.01
2017-08-08T04:37:08.451Z,1012.02
2017-08-08T04:37:49.030Z,1012
2017-08-08T04:38:29.599Z,1012.01
2017-08-08T04:39:10.172Z,1011.99
2017-08-08T04:39:50.732Z,1011.98
2017-08-08T04:40:31.337Z,1011.96
2017-08-08T04:41:11.916Z,1011.95
2017-08-08T04:41:52.517Z,1011.99
2017-08-08T04:42:33.105Z,1011.97
2017-08-08T04:43:13.694Z,1011.99
2017-08-08T04:43:54.327Z,1011.96
2017-08-08T04:44:34.915Z,1011.98
2017-08-08T04:45:15.491Z,1011.94
2017-08-08T04:45:56.058Z,1011.94
2017-08-08T04:46:36.653Z,1011.99
2017-08-08T04:47:17.234Z,1011.92
2017-08-08T04:47:57.796Z,1011.96
2017-08-08T04:48:38.401Z,1011.93
2017-08-08T04:49:18.954Z,1011.91
2017-08-08T04:49:59.529Z,1011.89
2017-08-08T04:50:40.105Z,1011.94
2017-08-08T04:51:20.688Z,1011.94
2017-08-08T04:52:01.273Z,1011.93
2017-08-08T04:52:41.868Z,1011.95
2017-08-08T04:53:22.451Z,1011.98
2017-08-08T04:54:03.027Z,1011.99
2017-08-08T04:54:43.615Z,1011.94
2017-08-08T04:55:24.231Z,1011.93
2017-08-08T04:56:04.787Z,1011.96
2017-08-08T04:56:45.355Z,1011.93
2017-08-08T04:57:25.929Z,1011.96
2017-08-08T04:58:06.533Z,1011.86
2017-08-08T04:58:47.107Z,1011.86
2017-08-08T04:59:27.689Z,1011.81
2017-08-08T05:00:08.253Z,1011.87
2017-08-08T05:00:48.830Z,1011.77
2017-08-08T05:01:29.421Z,1011.8
2017-08-08T05:02:10.054Z,1011.75
2017-08-08T05:02:50.627Z,1011.77
2017-08-08T05:03:31.226Z,1011.77
2017-08-08T05:04:11.813Z,1011.76
2017-08-08T05:04:52.460Z,1011.75
2017-08-08T05:05:33.003Z,1011.76
2017-08-08T05:06:13.578Z,1011.77
2017-08-08T05:06:54.146Z,1011.72
2017-08-08T05:07:34.742Z,1011.75
2017-08-08T05:08:15.322Z,1011.78
2017-08-08T05:08:55.904Z,1011.8
2017-08-08T05:09:36.492Z,1011.75
2017-08-08T05:10:17.061Z,1011.74
2017-08-08T05:10:57.629Z,1011.8
2017-08-08T05:11:38.195Z,1011.78
2017-08-08T05:12:18.795Z,1011.84
2017-08-08T05:12:59.380Z,1011.83
2017-08-08T05:13:39.954Z,1011.79
2017-08-08T05:14:20.549Z,1011.85
2017-08-08T05:15:01.128Z,1011.83
2017-08-08T05:15:41.716Z,1011.81
2017-08-08T05:16:22.294Z,1011.81
2017-08-08T05:17:02.885Z,1011.8
2017-08-08T05:17:43.466Z,1011.85
2017-08-08T05:18:24.039Z,1011.83
2017-08-08T05:19:04.609Z,1011.86
2017-08-08T05:19:45.184Z,1011.85
2017-08-08T05:20:25.794Z,1011.84
2017-08-08T05:21:06.393Z,1011.82
2017-08-08T05:21:46.966Z,1011.83
2017-08-08T05:22:27.549Z,1011.78
2017-08-08T05:23:08.196Z,1011.78
2017-08-08T05:23:48.753Z,1011.82
2017-08-08T05:24:29.321Z,1011.78
2017-08-08T05:25:09.925Z,1011.78
2017-08-08T05:25:50.511Z,1011.76
2017-08-08T05:26:31.106Z,1011.74
2017-08-08T05:27:11.673Z,1011.74
2017-08-08T05:27:52.253Z,1011.72
2017-08-08T05:28:32.829Z,1011.74
2017-08-08T05:29:13.392Z,1011.74
2017-08-08T05:29:53.977Z,1011.72
2017-08-08T05:30:34.574Z,1011.74
2017-08-08T05:31:15.144Z,1011.72
2017-08-08T05:31:55.713Z,1011.76
2017-08-08T05:32:36.290Z,1011.72
2017-08-08T05:33:16.857Z,1011.75
2017-08-08T05:33:57.434Z,1011.73
2017-08-08T05:34:38.006Z,1011.73
2017-08-08T05:35:18.568Z,1011.72
2017-08-08T05:35:59.179Z,1011.73
2017-08-08T05:36:39.730Z,1011.75
2017-08-08T05:37:20.297Z,1011.72
2017-08-08T05:38:00.883Z,1011.7
2017-08-08T05:38:41.464Z,1011.67
2017-08-08T05:39:22.058Z,1011.62
2017-08-08T05:40:02.630Z,1011.64
2017-08-08T05:40:43.238Z,1011.6
2017-08-08T05:41:23.803Z,1011.61
2017-08-08T05:42:04.386Z,1011.64
2017-08-08T05:42:44.978Z,1011.57
2017-08-08T05:43:25.554Z,1011.61
2017-08-08T05:44:06.124Z,1011.57
2017-08-08T05:44:46.707Z,1011.65
2017-08-08T05:45:27.329Z,1011.67
2017-08-08T05:46:07.886Z,1011.69
2017-08-08T05:46:48.457Z,1011.76
2017-08-08T05:47:29.075Z,1011.78
2017-08-08T05:48:09.655Z,1011.82
2017-08-08T05:48:50.246Z,1011.85
2017-08-08T05:49:30.807Z,1011.81
2017-08-08T05:50:11.415Z,1011.78
2017-08-08T05:50:52.009Z,1011.85
2017-08-08T05:51:32.744Z,1011.77
2017-08-08T05:52:13.594Z,1011.73
2017-08-08T05:52:54.200Z,1011.7
2017-08-08T05:53:34.770Z,1011.75
2017-08-08T05:54:15.380Z,1011.86
2017-08-08T05:54:55.956Z,1011.99
2017-08-08T05:55:36.544Z,1012.08
2017-08-08T05:56:17.113Z,1012.03
2017-08-08T05:56:57.676Z,1012.03
2017-08-08T05:57:38.258Z,1012.04
2017-08-08T05:58:18.869Z,1012.09
2017-08-08T05:58:59.534Z,1012.11
2017-08-08T05:59:40.122Z,1012.14
2017-08-08T06:00:20.744Z,1012.12
2017-08-08T06:01:01.331Z,1012.16
2017-08-08T06:01:42.226Z,1012.21
2017-08-08T06:02:22.872Z,1012.21
2017-08-08T06:03:03.598Z,1012.19
2017-08-08T06:03:44.273Z,1012.18
2017-08-08T06:04:25.047Z,1012.15
2017-08-08T06:05:05.613Z,1012.17
2017-08-08T06:05:46.219Z,1012.19
2017-08-08T06:06:26.784Z,1012.1
2017-08-08T06:07:07.364Z,1012.08
2017-08-08T06:07:48.013Z,1012.03
2017-08-08T06:08:28.631Z,1011.92
2017-08-08T06:09:09.221Z,1011.8
2017-08-08T06:09:49.842Z,1011.77
2017-08-08T06:10:30.418Z,1011.77
2017-08-08T06:11:11.020Z,1011.73
2017-08-08T06:11:51.617Z,1011.73
2017-08-08T06:12:32.192Z,1011.73
2017-08-08T06:13:12.775Z,1011.71
2017-08-08T06:13:53.392Z,1011.69
2017-08-08T06:14:34.001Z,1011.69
2017-08-08T06:15:14.579Z,1011.71
2017-08-08T06:15:55.186Z,1011.7
2017-08-08T06:16:35.766Z,1011.73
2017-08-08T06:17:16.347Z,1011.7
2017-08-08T06:17:56.936Z,1011.71
2017-08-08T06:18:37.567Z,1011.72
2017-08-08T06:19:18.141Z,1011.7
2017-08-08T06:19:58.752Z,1011.76
2017-08-08T06:20:39.335Z,1011.71
2017-08-08T06:21:19.911Z,1011.7
2017-08-08T06:22:00.526Z,1011.7
2017-08-08T06:22:41.112Z,1011.68
2017-08-08T06:23:21.706Z,1011.64
2017-08-08T06:24:02.308Z,1011.69
2017-08-08T06:24:43.305Z,1011.68
2017-08-08T06:25:24.350Z,1011.67
2017-08-08T06:26:04.933Z,1011.67
2017-08-08T06:26:46.010Z,1011.7
2017-08-08T06:27:26.597Z,1011.67
2017-08-08T06:28:07.217Z,1011.66
2017-08-08T06:28:47.795Z,1011.66
2017-08-08T06:29:28.419Z,1011.68
2017-08-08T06:30:09.014Z,1011.67
2017-08-08T06:30:49.603Z,1011.7
2017-08-08T06:31:30.290Z,1011.7
2017-08-08T06:32:11.227Z,1011.68
2017-08-08T06:32:51.815Z,1011.66
2017-08-08T06:33:32.387Z,1011.68
2017-08-08T06:34:13.664Z,1011.66
2017-08-08T06:34:54.298Z,1011.68
2017-08-08T06:35:35.167Z,1011.68
2017-08-08T06:36:16.835Z,1011.71
2017-08-08T06:36:57.525Z,1011.68
2017-08-08T06:37:38.117Z,1011.66
2017-08-08T06:38:18.686Z,1011.72
2017-08-08T06:38:59.526Z,1011.74
2017-08-08T06:39:40.165Z,1011.74
2017-08-08T06:40:21.021Z,1011.73
2017-08-08T06:41:01.855Z,1011.78
2017-08-08T06:41:42.432Z,1011.8
2017-08-08T06:42:23.215Z,1011.76
2017-08-08T06:43:04.094Z,1011.76
2017-08-08T06:43:44.675Z,1011.79
2017-08-08T06:44:25.330Z,1011.75
2017-08-08T06:45:05.928Z,1011.82
2017-08-08T06:45:46.675Z,1011.72
2017-08-08T06:46:27.272Z,1011.74
2017-08-08T06:47:07.870Z,1011.75
2017-08-08T06:47:48.792Z,1011.74
2017-08-08T06:48:29.619Z,1011.71
2017-08-08T06:49:10.878Z,1011.67
2017-08-08T06:49:51.562Z,1011.57
2017-08-08T06:50:32.465Z,1011.59
2017-08-08T06:51:13.218Z,1011.6
2017-08-08T06:51:54.284Z,1011.57
2017-08-08T06:52:35.059Z,1011.57
2017-08-08T06:53:15.938Z,1011.6
2017-08-08T06:53:56.786Z,1011.61
2017-08-08T06:54:37.411Z,1011.57
2017-08-08T06:55:17.996Z,1011.6
2017-08-08T06:55:58.598Z,1011.67
2017-08-08T06:56:39.436Z,1011.59
2017-08-08T06:57:20.136Z,1011.59
2017-08-08T06:58:00.725Z,1011.56
2017-08-08T06:58:41.299Z,1011.55
2017-08-08T06:59:22.198Z,1011.55
2017-08-08T07:00:03.080Z,1011.52
2017-08-08T07:00:43.800Z,1011.52
2017-08-08T07:01:24.496Z,1011.51
2017-08-08T07:02:05.398Z,1011.46
2017-08-08T07:02:46.195Z,1011.44
2017-08-08T07:03:26.987Z,1011.38
2017-08-08T07:04:07.798Z,1011.31
2017-08-08T07:04:48.436Z,1011.28
2017-08-08T07:05:29.006Z,1011.26
2017-08-08T07:06:09.616Z,1011.22
2017-08-08T07:06:50.180Z,1011.16
2017-08-08T07:07:30.775Z,1011.15
2017-08-08T07:08:11.538Z,1011.15
2017-08-08T07:08:52.242Z,1011.1
2017-08-08T07:09:32.841Z,1011.12
2017-08-08T07:10:13.435Z,1011.04
2017-08-08T07:10:54.409Z,1011.11
2017-08-08T07:11:35.181Z,1011.1
2017-08-08T07:12:16.044Z,1011.09
2017-08-08T07:12:56.867Z,1011.1
2017-08-08T07:13:37.776Z,1011.14
2017-08-08T07:14:18.747Z,1011.1
2017-08-08T07:14:59.543Z,1011.12
2017-08-08T07:15:40.407Z,1011.08
2017-08-08T07:16:21.008Z,1011.1
2017-08-08T07:17:01.580Z,1011.11
2017-08-08T07:17:42.165Z,1011.14
2017-08-08T07:18:22.926Z,1011.09
2017-08-08T07:19:03.530Z,1011.13
2017-08-08T07:19:44.120Z,1011.14
2017-08-08T07:20:24.799Z,1011.13
2017-08-08T07:21:05.392Z,1011.17
2017-08-08T07:21:45.978Z,1011.12
2017-08-08T07:22:26.593Z,1011.12
2017-08-08T07:23:07.276Z,1011.18
2017-08-08T07:23:48.207Z,1011.14
2017-08-08T07:24:29.257Z,1011.11
2017-08-08T07:25:10.438Z,1011.12
2017-08-08T07:25:51.137Z,1011.13
2017-08-08T07:26:31.727Z,1011.09
2017-08-08T07:27:12.405Z,1011.07
2017-08-08T07:27:52.980Z,1011.02
2017-08-08T07:28:33.787Z,1011.04
2017-08-08T07:29:14.360Z,1010.97
2017-08-08T07:29:55.018Z,1010.95
2017-08-08T07:30:35.599Z,1010.99
2017-08-08T07:31:16.196Z,1010.95
2017-08-08T07:31:56.776Z,1010.91
2017-08-08T07:32:37.345Z,1010.92
2017-08-08T07:33:18.051Z,1010.9
2017-08-08T07:33:58.684Z,1010.9
2017-08-08T07:34:39.271Z,1010.97
2017-08-08T07:35:19.857Z,1010.99
2017-08-08T07:36:00.439Z,1010.96
2017-08-08T07:36:41.017Z,1010.96
2017-08-08T07:37:21.601Z,1010.97
2017-08-08T07:38:02.185Z,1011.01
2017-08-08T07:38:42.780Z,1010.99
2017-08-08T07:39:23.751Z,1011.03
2017-08-08T07:40:04.389Z,1011.1
2017-08-08T07:40:44.981Z,1011.1
2017-08-08T07:41:25.559Z,1011.05
2017-08-08T07:42:06.363Z,1011.07
2017-08-08T07:42:46.953Z,1011.1
2017-08-08T07:43:27.578Z,1011.07
2017-08-08T07:44:08.178Z,1011.09
2017-08-08T07:44:48.778Z,1011.11
2017-08-08T07:45:29.365Z,1011.08
2017-08-08T07:46:09.944Z,1011.09
2017-08-08T07:46:50.532Z,1011.07
2017-08-08T07:47:31.102Z,1011.07
2017-08-08T07:48:11.706Z,1011.03
2017-08-08T07:48:52.293Z,1011.01
2017-08-08T07:49:32.873Z,1011.05
2017-08-08T07:50:13.446Z,1011.02
2017-08-08T07:50:54.041Z,1011.02
2017-08-08T07:51:34.658Z,1011.01
2017-08-08T07:52:15.207Z,1010.97
2017-08-08T07:52:55.806Z,1011.01
2017-08-08T07:53:36.404Z,1010.95
2017-08-08T07:54:17.015Z,1010.98
2017-08-08T07:54:57.607Z,1011.01
2017-08-08T07:55:38.238Z,1010.99
2017-08-08T07:56:18.825Z,1011
2017-08-08T07:56:59.446Z,1011.07
2017-08-08T07:57:40.073Z,1011.08
2017-08-08T07:58:20.653Z,1011.11
2017-08-08T07:59:01.235Z,1011.07
2017-08-08T07:59:41.859Z,1011.08
2017-08-08T08:00:22.453Z,1011.02
2017-08-08T08:01:03.092Z,1011
2017-08-08T08:01:43.695Z,1011.04
2017-08-08T08:02:24.298Z,1010.94
2017-08-08T08:03:04.998Z,1010.94
2017-08-08T08:03:45.567Z,1010.89
2017-08-08T08:04:26.188Z,1010.88
2017-08-08T08:05:07.003Z,1010.86
2017-08-08T08:05:47.770Z,1010.89
2017-08-08T08:06:28.350Z,1010.9
2017-08-08T08:07:09.012Z,1010.87
2017-08-08T08:07:49.620Z,1010.87
2017-08-08T08:08:30.472Z,1010.93
2017-08-08T08:09:13.991Z,1010.88
2017-08-08T08:10:01.161Z,1010.91
2017-08-08T08:10:41.756Z,1010.86
2017-08-08T08:11:22.342Z,1010.88
2017-08-08T08:12:02.929Z,1010.87
2017-08-08T08:12:43.514Z,1010.88
2017-08-08T08:13:24.098Z,1010.85